createdAt,value
2023-01-13T00:01:29.400Z,84.39
2023-01-13T00:04:00.536Z,84.51
2023-01-13T00:06:29.752Z,83.86
2023-01-13T00:08:59.147Z,84.51
2023-01-13T00:11:28.173Z,85.16
2023-01-13T00:13:56.474Z,85.15
2023-01-13T00:16:24.406Z,85.21
2023-01-13T00:18:52.754Z,84.68
2023-01-13T00:21:23.663Z,86.11
2023-01-13T00:23:54.911Z,87.36
2023-01-13T00:26:26.271Z,88.08
2023-01-13T00:28:59.415Z,88.23
2023-01-13T00:31:29.291Z,87.27
2023-01-13T00:33:59.388Z,89.61
2023-01-13T00:36:28.144Z,89.18
2023-01-13T00:38:56.942Z,88.38
2023-01-13T00:41:26.427Z,88.88
2023-01-13T00:43:54.816Z,88.88
2023-01-13T00:46:23.182Z,88.64
2023-01-13T00:48:51.936Z,89.82
2023-01-13T00:51:21.635Z,90.33
2023-01-13T00:53:51.934Z,89.76
2023-01-13T00:56:38.481Z,91.24
2023-01-13T00:59:13.611Z,90.80
2023-01-13T01:01:42.343Z,91.32
2023-01-13T01:04:11.683Z,90.78
2023-01-13T01:06:39.581Z,90.03
2023-01-13T01:09:07.761Z,91.80
2023-01-13T01:11:35.742Z,91.92
2023-01-13T01:14:04.671Z,93.29
2023-01-13T01:16:34.211Z,92.89
2023-01-13T01:19:04.862Z,92.29
2023-01-13T01:21:33.371Z,91.89
2023-01-13T01:24:04.478Z,92.46
2023-01-13T01:26:32.454Z,92.60
2023-01-13T01:29:02.575Z,91.33
2023-01-13T01:31:33.753Z,91.50
2023-01-13T01:34:02.624Z,91.09
2023-01-13T01:36:31.054Z,90.87
2023-01-13T01:39:00.388Z,91.51
2023-01-13T01:41:32.589Z,91.74
2023-01-13T01:44:41.954Z,90.63
2023-01-13T01:47:14.386Z,90.62
2023-01-13T01:49:45.090Z,90.84
2023-01-13T01:52:19.993Z,92.06
2023-01-13T01:54:55.549Z,92.91
2023-01-13T01:57:29.758Z,92.27
2023-01-13T02:00:01.277Z,92.36
2023-01-13T02:02:41.464Z,91.44
2023-01-13T02:05:10.640Z,91.57
2023-01-13T02:07:41.903Z,91.68
2023-01-13T02:10:14.116Z,92.21
2023-01-13T02:12:44.991Z,91.80
2023-01-13T02:15:44.119Z,91.65
2023-01-13T02:18:16.959Z,90.90
2023-01-13T02:20:52.966Z,91.50
2023-01-13T02:23:45.536Z,90.65
2023-01-13T02:26:47.880Z,90.97
2023-01-13T02:29:40.888Z,90.45
2023-01-13T02:32:27.949Z,90.45
2023-01-13T02:35:29.948Z,91.06
2023-01-13T02:38:01.147Z,90.28
2023-01-13T02:40:32.247Z,90.76
2023-01-13T02:43:29.381Z,90.16
2023-01-13T02:46:22.439Z,90.50
2023-01-13T02:48:54.666Z,91.29
2023-01-13T02:51:27.550Z,90.68
2023-01-13T02:54:05.646Z,90.61
2023-01-13T02:56:40.839Z,91.13
2023-01-13T02:59:12.495Z,91.21
2023-01-13T03:01:42.979Z,91.14
2023-01-13T03:04:34.922Z,91.02
2023-01-13T03:07:28.092Z,92.55
2023-01-13T03:10:22.211Z,92.36
2023-01-13T03:13:19.152Z,92.00
2023-01-13T03:16:11.914Z,92.46
2023-01-13T03:18:58.713Z,92.69
2023-01-13T03:22:02.387Z,92.35
2023-01-13T03:24:40.161Z,92.26
2023-01-13T03:27:13.220Z,92.52
2023-01-13T03:29:55.921Z,92.88
2023-01-13T03:32:58.361Z,93.63
2023-01-13T03:35:31.420Z,94.01
2023-01-13T03:38:13.940Z,94.02
2023-01-13T03:40:52.043Z,93.82
2023-01-13T03:43:55.293Z,94.68
2023-01-13T03:46:33.378Z,93.22
2023-01-13T03:49:03.762Z,93.51
2023-01-13T03:51:34.919Z,95.63
2023-01-13T03:54:09.521Z,94.33
2023-01-13T03:56:46.182Z,95.17
2023-01-13T03:59:20.754Z,95.48
2023-01-13T04:01:54.630Z,95.69
2023-01-13T04:04:36.331Z,96.00
2023-01-13T04:07:14.173Z,95.89
2023-01-13T04:09:53.712Z,97.14
2023-01-13T04:12:59.226Z,95.80
2023-01-13T04:15:39.635Z,94.16
2023-01-13T04:18:26.542Z,96.69
2023-01-13T04:20:57.749Z,96.37
2023-01-13T04:23:25.920Z,95.75
2023-01-13T04:25:54.970Z,94.83
2023-01-13T04:28:23.614Z,94.44
2023-01-13T04:30:51.823Z,94.60
2023-01-13T04:33:20.521Z,93.89
2023-01-13T04:35:50.162Z,93.41
2023-01-13T04:38:20.234Z,93.58
2023-01-13T04:40:48.497Z,93.03
2023-01-13T04:43:16.945Z,92.39
2023-01-13T04:45:45.436Z,92.43
2023-01-13T04:48:13.886Z,93.32
2023-01-13T04:50:42.127Z,93.07
2023-01-13T04:53:10.130Z,90.72
2023-01-13T04:55:38.650Z,91.72
2023-01-13T04:58:09.039Z,92.18
2023-01-13T05:00:38.185Z,92.91
2023-01-13T05:03:06.597Z,92.17
2023-01-13T05:05:34.902Z,91.90
2023-01-13T05:08:02.881Z,93.30
2023-01-13T05:10:31.150Z,91.65
2023-01-13T05:13:17.747Z,90.49
2023-01-13T05:16:06.816Z,92.13
2023-01-13T05:18:35.049Z,92.17
2023-01-13T05:21:04.460Z,92.10
2023-01-13T05:23:51.073Z,92.14
2023-01-13T05:26:19.443Z,92.62
2023-01-13T05:28:47.371Z,93.87
2023-01-13T05:31:15.839Z,93.59
2023-01-13T05:33:47.123Z,93.80
2023-01-13T05:36:15.461Z,93.33
2023-01-13T05:38:43.613Z,92.49
2023-01-13T05:41:30.275Z,92.56
2023-01-13T05:43:58.224Z,92.17
2023-01-13T05:46:26.545Z,92.61
2023-01-13T05:48:54.521Z,92.72
2023-01-13T05:51:26.661Z,92.16
2023-01-13T05:53:54.788Z,92.76
2023-01-13T05:56:23.031Z,92.37
2023-01-13T05:58:51.475Z,90.75
2023-01-13T06:01:19.818Z,91.56
2023-01-13T06:03:47.759Z,91.95
2023-01-13T06:06:16.022Z,91.87
2023-01-13T06:08:43.937Z,92.96
2023-01-13T06:11:12.200Z,92.32
2023-01-13T06:13:40.158Z,92.73
2023-01-13T06:16:09.312Z,92.17
2023-01-13T06:18:37.307Z,91.64
2023-01-13T06:21:05.724Z,93.95
2023-01-13T06:23:35.628Z,94.17
2023-01-13T06:26:12.651Z,93.83
2023-01-13T06:28:40.593Z,94.26
2023-01-13T06:31:10.951Z,93.97
2023-01-13T06:33:49.240Z,92.87
2023-01-13T06:36:22.630Z,91.43
2023-01-13T06:38:55.462Z,92.18
2023-01-13T06:41:44.840Z,91.29
2023-01-13T06:44:12.884Z,90.95
2023-01-13T06:46:41.180Z,90.03
2023-01-13T06:49:09.265Z,90.70
2023-01-13T06:51:37.590Z,92.26
2023-01-13T06:54:05.610Z,91.86
2023-01-13T06:56:33.851Z,92.53
2023-01-13T06:59:01.968Z,92.27
2023-01-13T07:01:30.842Z,90.71
2023-01-13T07:03:58.834Z,90.53
2023-01-13T07:06:27.099Z,90.97
2023-01-13T07:08:55.356Z,90.07
2023-01-13T07:11:23.634Z,92.12
2023-01-13T07:14:10.191Z,91.89
2023-01-13T07:16:38.570Z,92.04
2023-01-13T07:19:06.511Z,92.68
2023-01-13T07:21:34.891Z,93.89
2023-01-13T07:24:02.721Z,92.73
2023-01-13T07:26:31.041Z,92.75
2023-01-13T07:28:59.027Z,93.81
2023-01-13T07:31:28.483Z,93.91
2023-01-13T07:33:56.426Z,93.07
2023-01-13T07:36:24.761Z,92.79
2023-01-13T07:38:54.815Z,94.37
2023-01-13T07:41:42.184Z,94.73
2023-01-13T07:44:11.147Z,94.82
2023-01-13T07:46:40.997Z,93.58
2023-01-13T07:49:10.474Z,93.51
2023-01-13T07:51:40.046Z,93.91
2023-01-13T07:54:08.027Z,93.77
2023-01-13T07:56:37.362Z,92.71
2023-01-13T07:59:05.373Z,91.33
2023-01-13T08:01:34.406Z,91.88
2023-01-13T08:04:02.382Z,92.73
2023-01-13T08:06:30.641Z,92.59
2023-01-13T08:08:59.211Z,92.16
2023-01-13T08:11:27.522Z,92.84
2023-01-13T08:13:58.048Z,93.00
2023-01-13T08:16:26.480Z,91.61
2023-01-13T08:18:54.540Z,91.00
2023-01-13T08:21:22.872Z,92.31
2023-01-13T08:23:50.819Z,92.76
2023-01-13T08:26:19.236Z,92.28
2023-01-13T08:28:47.220Z,92.52
2023-01-13T08:31:17.216Z,93.76
2023-01-13T08:33:45.889Z,92.00
2023-01-13T08:36:14.284Z,92.35
2023-01-13T08:38:42.929Z,93.30
2023-01-13T08:41:13.955Z,94.27
2023-01-13T08:43:42.300Z,94.79
2023-01-13T08:46:10.722Z,92.85
2023-01-13T08:48:38.735Z,91.91
2023-01-13T08:51:09.100Z,90.95
2023-01-13T08:53:37.266Z,91.88
2023-01-13T08:56:13.390Z,91.00
2023-01-13T08:58:41.347Z,91.41
2023-01-13T09:01:15.752Z,89.80
2023-01-13T09:03:44.005Z,89.98
2023-01-13T09:06:12.284Z,90.84
2023-01-13T09:08:40.341Z,91.11
2023-01-13T09:11:37.080Z,91.11
2023-01-13T09:14:05.104Z,89.76
2023-01-13T09:16:33.384Z,90.18
2023-01-13T09:19:01.284Z,88.99
2023-01-13T09:21:29.666Z,89.53
2023-01-13T09:23:57.657Z,89.55
2023-01-13T09:26:25.964Z,89.73
2023-01-13T09:28:54.011Z,89.07
2023-01-13T09:31:22.325Z,88.30
2023-01-13T09:34:08.837Z,87.56
2023-01-13T09:36:37.160Z,87.69
2023-01-13T09:39:06.276Z,87.86
2023-01-13T09:42:00.604Z,87.84
2023-01-13T09:44:36.764Z,87.48
2023-01-13T09:47:15.123Z,86.75
2023-01-13T09:49:43.754Z,86.65
2023-01-13T09:52:19.981Z,86.88
2023-01-13T09:55:12.405Z,86.79
2023-01-13T09:57:40.803Z,87.93
2023-01-13T10:00:11.934Z,87.23
2023-01-13T10:03:19.497Z,87.38
2023-01-13T10:05:50.644Z,88.51
2023-01-13T10:08:30.040Z,88.00
2023-01-13T10:11:37.852Z,89.72
2023-01-13T10:14:18.509Z,88.97
2023-01-13T10:17:19.483Z,88.69
2023-01-13T10:20:08.516Z,87.69
2023-01-13T10:22:48.557Z,87.98
2023-01-13T10:25:24.895Z,87.72
2023-01-13T10:27:56.303Z,87.50
2023-01-13T10:30:36.008Z,88.17
2023-01-13T10:33:13.211Z,87.36
2023-01-13T10:35:49.648Z,86.80
2023-01-13T10:38:24.676Z,85.73
2023-01-13T10:40:54.917Z,85.46
2023-01-13T10:43:23.667Z,85.68
2023-01-13T10:46:01.570Z,87.92
2023-01-13T10:48:39.130Z,91.11
2023-01-13T10:51:39.675Z,90.71
2023-01-13T10:54:13.570Z,89.77
2023-01-13T10:56:45.101Z,89.68
2023-01-13T10:59:24.994Z,89.13
2023-01-13T11:02:25.236Z,89.03
2023-01-13T11:04:53.945Z,90.08
2023-01-13T11:07:35.839Z,89.08
2023-01-13T11:10:09.874Z,89.45
2023-01-13T11:13:15.353Z,88.13
2023-01-13T11:15:59.059Z,84.35
2023-01-13T11:18:27.576Z,85.94
2023-01-13T11:20:57.988Z,84.46
2023-01-13T11:23:37.724Z,84.08
2023-01-13T11:26:22.005Z,83.41
2023-01-13T11:29:00.248Z,84.14
2023-01-13T11:31:36.445Z,83.98
2023-01-13T11:34:15.187Z,81.70
2023-01-13T11:36:55.641Z,82.79
2023-01-13T11:39:34.015Z,85.30
2023-01-13T11:42:22.295Z,87.78
2023-01-13T11:45:05.327Z,85.17
2023-01-13T11:47:36.257Z,85.25
2023-01-13T11:50:15.548Z,84.87
2023-01-13T11:52:49.734Z,84.65
2023-01-13T11:55:40.425Z,83.98
2023-01-13T11:58:50.741Z,84.92
2023-01-13T12:01:25.669Z,85.48
2023-01-13T12:04:29.988Z,88.31
2023-01-13T12:07:01.166Z,88.03
2023-01-13T12:09:53.473Z,89.34
2023-01-13T12:12:35.195Z,89.16
2023-01-13T12:15:35.984Z,88.29
2023-01-13T12:18:07.320Z,87.00
2023-01-13T12:20:47.877Z,86.76
2023-01-13T12:23:26.809Z,87.51
2023-01-13T12:26:00.756Z,87.55
2023-01-13T12:28:43.194Z,89.41
2023-01-13T12:31:12.576Z,92.42
2023-01-13T12:34:01.483Z,91.32
2023-01-13T12:36:51.720Z,88.12
2023-01-13T12:39:52.757Z,85.00
2023-01-13T12:42:51.045Z,83.29
2023-01-13T12:45:24.713Z,82.09
2023-01-13T12:47:53.304Z,80.18
2023-01-13T12:50:24.935Z,80.21
2023-01-13T12:52:58.377Z,78.20
2023-01-13T12:55:32.764Z,77.23
2023-01-13T12:58:16.181Z,76.48
2023-01-13T13:00:45.712Z,75.80
2023-01-13T13:03:19.297Z,74.84
2023-01-13T13:06:06.547Z,73.84
2023-01-13T13:09:04.492Z,74.84
2023-01-13T13:11:58.398Z,74.36
2023-01-13T13:14:41.459Z,72.36
2023-01-13T13:17:28.646Z,73.81
2023-01-13T13:19:58.543Z,72.18
2023-01-13T13:22:26.821Z,71.31
2023-01-13T13:24:54.962Z,70.87
2023-01-13T13:27:42.607Z,68.75
2023-01-13T13:30:22.383Z,66.78
2023-01-13T13:33:27.552Z,67.14
2023-01-13T13:36:14.291Z,66.46
2023-01-13T13:39:48.679Z,66.50
2023-01-13T13:42:45.457Z,67.23
2023-01-13T13:45:40.292Z,66.74
2023-01-13T13:48:31.064Z,65.75
2023-01-13T13:51:04.282Z,65.36
2023-01-13T13:53:39.557Z,65.05
2023-01-13T13:56:19.239Z,65.11
2023-01-13T13:58:48.817Z,63.57
2023-01-13T14:01:24.788Z,64.22
2023-01-13T14:04:14.002Z,63.49
2023-01-13T14:06:51.423Z,63.99
2023-01-13T14:09:21.213Z,64.89
2023-01-13T14:12:04.555Z,65.32
2023-01-13T14:14:32.754Z,62.08
2023-01-13T14:17:01.753Z,58.22
2023-01-13T14:19:34.553Z,54.92
2023-01-13T14:22:05.060Z,53.20
2023-01-13T14:24:34.333Z,52.36
2023-01-13T14:27:19.626Z,49.70
2023-01-13T14:29:49.204Z,52.16
2023-01-13T14:32:23.218Z,47.12
2023-01-13T14:34:52.318Z,43.40
2023-01-13T14:37:35.275Z,42.78
2023-01-13T14:40:03.824Z,40.49
2023-01-13T14:42:35.661Z,38.11
2023-01-13T14:45:04.096Z,37.10
2023-01-13T14:47:34.348Z,36.66
2023-01-13T14:50:11.353Z,37.48
2023-01-13T14:52:55.960Z,38.07
2023-01-13T14:55:29.670Z,37.69
2023-01-13T14:58:24.631Z,37.29
2023-01-13T15:01:28.993Z,39.37
2023-01-13T15:04:18.166Z,38.89
2023-01-13T15:06:47.500Z,39.47
2023-01-13T15:09:25.237Z,40.52
2023-01-13T15:11:54.479Z,40.67
2023-01-13T15:14:28.769Z,40.69
2023-01-13T15:16:57.927Z,40.46
2023-01-13T15:19:26.262Z,41.71
2023-01-13T15:21:54.377Z,43.00
2023-01-13T15:24:22.606Z,44.58
2023-01-13T15:26:50.639Z,47.00
2023-01-13T15:29:21.003Z,51.68
2023-01-13T15:31:49.100Z,55.10
2023-01-13T15:34:17.455Z,58.08
2023-01-13T15:36:45.441Z,62.37
2023-01-13T15:39:13.724Z,64.28
2023-01-13T15:42:00.046Z,66.28
2023-01-13T15:44:47.161Z,65.56
2023-01-13T15:47:15.227Z,66.33
2023-01-13T15:49:46.901Z,67.69
2023-01-13T15:52:24.127Z,68.96
2023-01-13T15:54:53.884Z,70.14
2023-01-13T15:57:31.124Z,72.09
2023-01-13T16:00:04.249Z,73.37
2023-01-13T16:02:34.865Z,73.37
2023-01-13T16:05:04.116Z,74.35
2023-01-13T16:07:32.233Z,75.94
2023-01-13T16:10:01.986Z,75.30
2023-01-13T16:12:30.033Z,76.86
2023-01-13T16:14:59.827Z,76.58
2023-01-13T16:17:30.971Z,77.32
2023-01-13T16:20:00.502Z,76.63
2023-01-13T16:22:28.468Z,77.24
2023-01-13T16:24:57.109Z,78.51
2023-01-13T16:27:25.689Z,80.42
2023-01-13T16:29:53.946Z,80.55
2023-01-13T16:32:21.954Z,81.28
2023-01-13T16:34:50.336Z,82.21
2023-01-13T16:37:25.784Z,82.75
2023-01-13T16:39:55.324Z,83.26
2023-01-13T16:42:23.413Z,81.21
2023-01-13T16:44:53.104Z,81.58
2023-01-13T16:47:22.946Z,82.13
2023-01-13T16:49:53.122Z,82.93
2023-01-13T16:52:21.265Z,81.28
2023-01-13T16:54:49.530Z,81.17
2023-01-13T16:57:17.459Z,84.45
2023-01-13T16:59:46.909Z,85.50
2023-01-13T17:02:20.200Z,84.38
2023-01-13T17:04:49.282Z,85.11
2023-01-13T17:07:18.243Z,85.54
2023-01-13T17:09:46.782Z,84.67
2023-01-13T17:12:14.753Z,83.77
2023-01-13T17:14:43.853Z,83.88
2023-01-13T17:17:23.112Z,83.75
2023-01-13T17:19:52.691Z,84.57
2023-01-13T17:22:22.141Z,85.55
2023-01-13T17:24:50.697Z,85.72
2023-01-13T17:27:18.919Z,86.17
2023-01-13T17:29:47.725Z,85.57
2023-01-13T17:32:20.546Z,85.48
2023-01-13T17:34:49.631Z,86.61
2023-01-13T17:37:18.060Z,86.40
2023-01-13T17:39:48.674Z,85.43
2023-01-13T17:42:17.496Z,85.58
2023-01-13T17:44:48.211Z,84.69
2023-01-13T17:47:16.337Z,83.65
2023-01-13T17:49:44.807Z,82.95
2023-01-13T17:52:13.101Z,82.33
2023-01-13T17:54:43.268Z,81.86
2023-01-13T17:57:11.310Z,81.87
2023-01-13T17:59:41.798Z,82.51
2023-01-13T18:02:12.689Z,82.00
2023-01-13T18:04:42.923Z,81.73
2023-01-13T18:07:11.036Z,82.48
2023-01-13T18:09:39.537Z,82.30
2023-01-13T18:12:07.746Z,83.35
2023-01-13T18:14:36.157Z,82.75
2023-01-13T18:17:04.283Z,82.80
2023-01-13T18:19:51.724Z,83.19
2023-01-13T18:22:38.171Z,82.95
2023-01-13T18:25:46.324Z,84.15
2023-01-13T18:28:14.442Z,84.41
2023-01-13T18:30:43.989Z,85.05
2023-01-13T18:33:12.059Z,84.76
2023-01-13T18:35:40.434Z,84.36
2023-01-13T18:38:08.931Z,84.71
2023-01-13T18:40:37.411Z,84.79
2023-01-13T18:43:05.604Z,83.96
2023-01-13T18:45:33.989Z,83.26
2023-01-13T18:48:04.904Z,83.21
2023-01-13T18:50:37.228Z,81.56
2023-01-13T18:53:05.411Z,81.13
2023-01-13T18:55:33.973Z,81.14
2023-01-13T18:58:02.300Z,81.11
2023-01-13T19:00:36.860Z,80.66
2023-01-13T19:05:39.824Z,78.85
2023-01-13T19:08:07.929Z,79.30
2023-01-13T19:10:37.800Z,79.07
2023-01-13T19:13:05.878Z,80.02
2023-01-13T19:15:37.449Z,79.86
2023-01-13T19:18:06.249Z,80.08
2023-01-13T19:20:35.045Z,80.05
2023-01-13T19:23:03.193Z,80.12
2023-01-13T19:25:31.689Z,80.91
2023-01-13T19:27:59.879Z,80.39
2023-01-13T19:30:30.218Z,80.48
2023-01-13T19:32:58.320Z,80.08
2023-01-13T19:35:26.930Z,80.55
2023-01-13T19:37:56.336Z,80.57
2023-01-13T19:40:26.984Z,81.20
2023-01-13T19:43:13.776Z,81.11
2023-01-13T19:45:42.176Z,81.43
2023-01-13T19:48:10.331Z,80.77
2023-01-13T19:50:40.124Z,80.43
2023-01-13T19:53:14.866Z,79.34
2023-01-13T19:55:48.906Z,78.19
2023-01-13T19:58:21.375Z,77.82
2023-01-13T20:00:51.202Z,77.33
2023-01-13T20:03:24.532Z,76.57
2023-01-13T20:05:54.314Z,77.36
2023-01-13T20:08:24.092Z,77.63
2023-01-13T20:11:13.501Z,77.80
2023-01-13T20:13:42.233Z,78.46
2023-01-13T20:16:10.659Z,78.85
2023-01-13T20:18:38.924Z,78.93
2023-01-13T20:21:08.644Z,77.97
2023-01-13T20:23:37.099Z,78.69
2023-01-13T20:26:10.475Z,78.80
2023-01-13T20:28:39.785Z,78.82
2023-01-13T20:31:11.533Z,78.45
2023-01-13T20:33:42.098Z,79.75
2023-01-13T20:36:37.176Z,80.05
2023-01-13T20:39:07.793Z,81.35
2023-01-13T20:41:56.516Z,81.37
2023-01-13T20:44:27.132Z,81.14
2023-01-13T20:47:01.963Z,80.01
2023-01-13T20:49:31.413Z,79.71
2023-01-13T20:52:01.336Z,80.46
2023-01-13T20:54:31.244Z,80.04
2023-01-13T20:57:01.364Z,79.87
2023-01-13T20:59:30.255Z,79.52
2023-01-13T21:02:01.923Z,80.08
2023-01-13T21:04:32.209Z,80.26
2023-01-13T21:07:01.949Z,80.07
2023-01-13T21:09:31.954Z,79.48
2023-01-13T21:12:19.446Z,79.02
2023-01-13T21:15:06.061Z,79.10
2023-01-13T21:17:53.545Z,79.38
2023-01-13T21:20:23.023Z,79.02
2023-01-13T21:22:51.850Z,78.22
2023-01-13T21:25:21.264Z,78.02
2023-01-13T21:27:49.927Z,77.55
2023-01-13T21:30:18.345Z,77.87
2023-01-13T21:32:47.804Z,76.85
2023-01-13T21:35:16.091Z,77.05
2023-01-13T21:37:45.724Z,76.84
2023-01-13T21:40:15.202Z,77.51
2023-01-13T21:43:01.975Z,77.12
2023-01-13T21:45:48.500Z,76.81
2023-01-13T21:48:16.851Z,77.42
2023-01-13T21:50:45.768Z,77.71
2023-01-13T21:53:14.004Z,78.00
2023-01-13T21:55:42.724Z,79.29
2023-01-13T21:58:14.300Z,79.33
2023-01-13T22:00:44.684Z,80.07
2023-01-13T22:03:14.872Z,80.07
2023-01-13T22:05:42.741Z,79.17
2023-01-13T22:08:13.218Z,80.88
2023-01-13T22:11:00.542Z,81.53
2023-01-13T22:13:48.261Z,81.35
2023-01-13T22:16:16.340Z,81.14
2023-01-13T22:18:44.685Z,81.12
2023-01-13T22:21:12.804Z,81.95
2023-01-13T22:23:41.072Z,82.17
2023-01-13T22:26:09.260Z,82.09
2023-01-13T22:28:43.255Z,82.27
2023-01-13T22:31:14.474Z,81.50
2023-01-13T22:33:47.520Z,81.97
2023-01-13T22:36:16.319Z,80.46
2023-01-13T22:38:45.052Z,81.61
2023-01-13T22:41:13.125Z,81.62
2023-01-13T22:43:41.566Z,82.09
2023-01-13T22:46:12.130Z,83.58
2023-01-13T22:48:41.714Z,83.52
2023-01-13T22:51:11.242Z,83.63
2023-01-13T22:53:40.387Z,83.12
2023-01-13T22:56:11.872Z,83.51
2023-01-13T22:58:40.215Z,83.06
2023-01-13T23:01:09.647Z,84.08
2023-01-13T23:03:38.437Z,84.50
2023-01-13T23:06:07.253Z,85.08
2023-01-13T23:08:36.389Z,85.14
2023-01-13T23:11:09.622Z,85.56
2023-01-13T23:13:39.671Z,84.67
2023-01-13T23:16:21.417Z,88.05
2023-01-13T23:18:50.121Z,86.73
2023-01-13T23:21:24.133Z,86.70
2023-01-13T23:23:52.983Z,86.49
2023-01-13T23:26:22.070Z,86.34
2023-01-13T23:28:50.540Z,87.26
2023-01-13T23:31:21.603Z,85.91
2023-01-13T23:33:49.948Z,85.79
2023-01-13T23:36:23.544Z,85.41
2023-01-13T23:38:53.026Z,86.58
2023-01-13T23:41:23.725Z,87.23
2023-01-13T23:44:00.546Z,87.69
2023-01-13T23:46:31.051Z,87.90
2023-01-13T23:48:59.625Z,87.28
2023-01-13T23:51:30.172Z,86.67
2023-01-13T23:53:59.502Z,88.21
2023-01-13T23:56:31.208Z,87.63
2023-01-13T23:58:59.488Z,87.12
